Time;durP1;ratioP1;P1;durP2;ratioP2;P2;SDS_P1;SDS_P2;PMS_P1;PMS_P2;Temp;Humidity;BMP_temperature;BMP_pressure;BME280_temperature;BME280_humidity;BME280_pressure;Samples;Min_cycle;Max_cycle;Signal;HPM_P1;HPM_P2
2022/04/29 00:00:03;;;;;;;1.15;0.73;;;6.40;99.90;;;;;;5051683;28;20075;-71
2022/04/29 00:02:29;;;;;;;0.63;0.63;;;6.40;99.90;;;;;;5051649;28;20045;-71
2022/04/29 00:04:54;;;;;;;2.90;1.38;;;6.40;99.90;;;;;;5035075;28;20454;-71
2022/04/29 00:07:20;;;;;;;1.38;0.95;;;6.40;99.90;;;;;;5051538;28;20451;-71
2022/04/29 00:09:46;;;;;;;1.05;0.63;;;7.20;99.90;;;;;;5018567;28;20492;-71
2022/04/29 00:12:12;;;;;;;1.45;1.00;;;7.40;99.90;;;;;;5034709;28;20415;-71
2022/04/29 00:14:38;;;;;;;0.85;0.70;;;6.30;99.90;;;;;;5051763;28;20402;-72
2022/04/29 00:17:05;;;;;;;5.90;0.80;;;6.30;99.90;;;;;;5051767;28;20159;-72
2022/04/29 00:19:31;;;;;;;0.82;0.75;;;6.30;99.90;;;;;;5051717;28;20040;-72
2022/04/29 00:21:57;;;;;;;1.27;0.98;;;6.30;99.90;;;;;;5034865;28;20052;-71
2022/04/29 00:24:23;;;;;;;5.93;0.93;;;6.30;99.90;;;;;;5034840;28;20123;-72
2022/04/29 00:26:49;;;;;;;1.50;0.73;;;6.30;99.90;;;;;;5051632;28;20449;-72
2022/04/29 00:29:15;;;;;;;6.22;1.10;;;6.20;99.90;;;;;;5051381;28;20124;-72
2022/04/29 00:31:40;;;;;;;0.75;0.65;;;6.20;99.90;;;;;;5034722;28;20107;-72
2022/04/29 00:34:06;;;;;;;1.00;0.77;;;6.10;99.90;;;;;;5051249;28;20060;-72
2022/04/29 00:36:32;;;;;;;2.72;1.20;;;6.10;99.90;;;;;;5051532;28;20381;-72
2022/04/29 00:38:58;;;;;;;2.83;0.95;;;6.10;99.90;;;;;;5055536;28;20054;-72
2022/04/29 00:41:24;;;;;;;0.55;0.55;;;6.10;99.90;;;;;;5041302;28;20040;-71
2022/04/29 00:44:03;;;;;;;2.25;1.33;;;6.10;99.90;;;;;;5057882;28;20045;-71
2022/04/29 00:46:42;;;;;;;1.13;0.93;;;6.00;99.90;;;;;;5057845;28;20127;-71
2022/04/29 00:49:11;;;;;;;1.25;0.80;;;6.00;99.90;;;;;;5058235;28;20549;-71
2022/04/29 00:51:37;;;;;;;4.18;0.88;;;5.90;99.90;;;;;;5057748;28;20103;-71
2022/04/29 00:54:06;;;;;;;2.50;1.20;;;6.10;99.90;;;;;;5057856;28;20128;-72
2022/04/29 00:56:37;;;;;;;1.08;0.73;;;5.90;99.90;;;;;;5057762;28;20102;-72
2022/04/29 00:59:15;;;;;;;1.88;1.45;;;5.80;99.90;;;;;;5057882;28;20051;-71
2022/04/29 01:01:44;;;;;;;1.38;0.88;;;5.90;99.90;;;;;;5058114;28;20068;-71
2022/04/29 01:04:16;;;;;;;0.90;0.77;;;5.90;99.90;;;;;;5058071;28;20041;-71
2022/04/29 01:06:42;;;;;;;0.65;0.57;;;6.10;99.90;;;;;;5057744;28;20049;-71
2022/04/29 01:09:08;;;;;;;1.17;0.77;;;5.80;99.90;;;;;;5057757;28;20052;-71
2022/04/29 01:11:34;;;;;;;0.90;0.60;;;5.80;99.90;;;;;;5057418;28;20048;-71
2022/04/29 01:14:00;;;;;;;1.40;1.00;;;5.80;99.90;;;;;;5057735;28;20055;-72
2022/04/29 01:16:25;;;;;;;1.77;1.13;;;5.80;99.90;;;;;;5057607;28;20041;-72
2022/04/29 01:18:53;;;;;;;3.20;0.88;;;6.00;99.90;;;;;;5040994;28;20036;-71
2022/04/29 01:21:19;;;;;;;9.55;1.17;;;5.70;99.90;;;;;;5041204;28;20091;-71
2022/04/29 01:23:45;;;;;;;2.22;1.20;;;5.70;99.90;;;;;;5041247;28;20396;-72
2022/04/29 01:26:15;;;;;;;1.40;1.13;;;5.70;99.90;;;;;;5041051;28;20041;-71
2022/04/29 01:28:44;;;;;;;2.28;1.30;;;6.30;99.90;;;;;;5057789;28;20523;-71
2022/04/29 01:31:13;;;;;;;3.33;1.20;;;5.70;99.90;;;;;;5040914;28;20041;-71
2022/04/29 01:33:45;;;;;;;1.45;1.10;;;5.80;99.90;;;;;;5040828;28;20404;-71
2022/04/29 01:36:12;;;;;;;2.15;1.05;;;5.80;99.90;;;;;;5057564;28;20045;-71
2022/04/29 01:38:38;;;;;;;1.20;0.60;;;5.80;99.90;;;;;;5041173;28;20123;-70
2022/04/29 01:41:07;;;;;;;1.77;0.80;;;5.80;99.90;;;;;;5057489;28;20059;-71
2022/04/29 01:43:34;;;;;;;1.38;1.05;;;6.60;99.90;;;;;;5041341;28;20124;-71
2022/04/29 01:46:01;;;;;;;0.60;0.60;;;5.70;99.90;;;;;;5057452;28;20056;-71
2022/04/29 01:48:27;;;;;;;2.88;0.90;;;5.90;99.90;;;;;;5057399;28;20047;-71
2022/04/29 01:50:53;;;;;;;1.98;1.00;;;5.70;99.90;;;;;;5053435;28;20041;-71
2022/04/29 01:53:19;;;;;;;3.22;1.23;;;5.60;99.90;;;;;;5037453;28;20415;-70
2022/04/29 01:55:45;;;;;;;0.80;0.70;;;5.60;99.90;;;;;;5054726;28;20541;-71
2022/04/29 01:58:11;;;;;;;2.42;1.42;;;5.60;99.90;;;;;;5054109;28;20037;-71
2022/04/29 02:00:36;;;;;;;1.17;0.80;;;5.60;99.90;;;;;;5037609;28;20476;-71
2022/04/29 02:03:02;;;;;;;1.65;1.13;;;5.50;99.90;;;;;;5054274;28;20051;-71
2022/04/29 02:05:28;;;;;;;2.03;1.40;;;5.50;99.90;;;;;;5053927;28;20040;-72
2022/04/29 02:07:54;;;;;;;4.13;1.08;;;5.50;99.90;;;;;;5053924;28;20112;-72
2022/04/29 02:10:20;;;;;;;0.68;0.60;;;5.40;99.90;;;;;;5037296;28;20154;-71
2022/04/29 02:12:46;;;;;;;1.65;1.15;;;5.40;99.90;;;;;;5036985;28;20053;-72
2022/04/29 02:15:12;;;;;;;2.90;0.98;;;5.40;99.90;;;;;;5037662;28;20045;-72
2022/04/29 02:17:38;;;;;;;0.75;0.73;;;5.50;99.90;;;;;;5053812;28;20045;-72
2022/04/29 02:20:05;;;;;;;6.05;1.45;;;6.40;99.90;;;;;;5053741;28;20033;-72
2022/04/29 02:22:30;;;;;;;3.05;1.13;;;5.40;99.90;;;;;;5037128;28;20084;-72
2022/04/29 02:24:58;;;;;;;2.95;0.93;;;6.10;99.90;;;;;;5037048;28;20484;-72
2022/04/29 02:27:23;;;;;;;5.45;1.27;;;5.40;99.90;;;;;;5053551;28;20041;-72
2022/04/29 02:29:49;;;;;;;2.30;1.10;;;5.70;99.90;;;;;;5053535;28;20188;-72
2022/04/29 02:32:15;;;;;;;4.72;1.08;;;5.70;99.90;;;;;;5053432;28;20385;-72
2022/04/29 02:34:42;;;;;;;0.65;0.60;;;5.40;99.90;;;;;;5037079;28;20395;-72
2022/04/29 02:37:07;;;;;;;2.95;1.73;;;5.40;99.90;;;;;;5037008;28;20040;-72
2022/04/29 02:39:33;;;;;;;2.92;1.17;;;6.20;99.90;;;;;;5053582;28;20458;-72
2022/04/29 02:41:59;;;;;;;8.40;1.95;;;5.40;99.90;;;;;;5020306;28;20041;-72
2022/04/29 02:44:25;;;;;;;1.52;0.98;;;5.40;99.90;;;;;;5053283;28;20413;-72
2022/04/29 02:47:09;;;;;;;1.48;1.38;;;5.30;99.90;;;;;;5053191;28;20129;-71
2022/04/29 02:49:45;;;;;;;1.38;0.93;;;5.30;99.90;;;;;;5053427;28;20048;-71
2022/04/29 02:52:14;;;;;;;1.88;1.20;;;5.30;99.90;;;;;;5053112;28;20041;-72
2022/04/29 02:54:40;;;;;;;2.35;1.40;;;5.40;99.90;;;;;;5052993;28;20040;-72
2022/04/29 02:57:06;;;;;;;2.15;1.25;;;5.30;99.90;;;;;;5053027;28;20051;-72
2022/04/29 02:59:32;;;;;;;1.27;0.82;;;6.20;99.90;;;;;;5052954;28;20037;-72
2022/04/29 03:01:58;;;;;;;1.05;0.95;;;5.30;99.90;;;;;;5052508;28;20450;-72
2022/04/29 03:04:24;;;;;;;3.78;1.40;;;5.30;99.90;;;;;;5036328;28;20459;-72
2022/04/29 03:06:50;;;;;;;2.55;1.35;;;5.30;99.90;;;;;;5036309;28;20045;-72
2022/04/29 03:09:16;;;;;;;2.15;1.30;;;5.50;99.90;;;;;;5036255;28;20478;-72
2022/04/29 03:11:42;;;;;;;2.03;1.23;;;5.20;99.90;;;;;;5036085;28;20057;-71
2022/04/29 03:14:08;;;;;;;4.32;1.35;;;5.20;99.90;;;;;;5036224;28;20123;-72
2022/04/29 03:16:34;;;;;;;1.08;0.77;;;5.20;99.90;;;;;;5052588;28;20044;-72
2022/04/29 03:19:00;;;;;;;2.67;1.65;;;5.20;99.90;;;;;;5036004;28;20125;-72
2022/04/29 03:21:26;;;;;;;2.20;1.42;;;5.20;99.90;;;;;;5052539;28;20029;-72
2022/04/29 03:23:52;;;;;;;1.38;1.17;;;5.20;99.90;;;;;;5035840;28;20029;-71
2022/04/29 03:26:21;;;;;;;3.40;1.83;;;5.20;99.90;;;;;;5052357;28;20047;-72
2022/04/29 03:28:46;;;;;;;6.35;1.33;;;5.20;99.90;;;;;;5036073;28;20128;-72
2022/04/29 03:31:12;;;;;;;1.15;1.05;;;5.20;99.90;;;;;;5036144;28;20047;-72
2022/04/29 03:33:38;;;;;;;1.20;1.05;;;5.20;99.90;;;;;;5035654;28;20049;-72
2022/04/29 03:36:04;;;;;;;4.50;1.85;;;5.20;99.90;;;;;;5019264;28;20408;-72
2022/04/29 03:38:30;;;;;;;2.05;1.40;;;5.20;99.90;;;;;;5052526;28;20040;-72
2022/04/29 03:40:55;;;;;;;2.05;1.05;;;5.50;99.90;;;;;;5052256;28;20037;-72
2022/04/29 03:43:21;;;;;;;11.40;1.63;;;5.60;99.90;;;;;;5035532;28;20042;-72
2022/04/29 03:45:47;;;;;;;2.28;1.45;;;5.20;99.90;;;;;;5052049;28;20056;-72
2022/04/29 03:48:13;;;;;;;3.90;1.80;;;5.20;99.90;;;;;;5035727;28;20033;-72
2022/04/29 03:50:39;;;;;;;2.53;1.40;;;5.20;99.90;;;;;;5051917;28;20045;-72
2022/04/29 03:53:06;;;;;;;0.95;0.70;;;5.20;99.90;;;;;;5035253;28;20124;-72
2022/04/29 03:55:34;;;;;;;3.30;1.73;;;5.20;99.90;;;;;;5051865;28;20040;-72
2022/04/29 03:58:02;;;;;;;2.33;1.50;;;5.80;99.90;;;;;;5035620;28;20444;-72
2022/04/29 04:00:31;;;;;;;1.80;1.05;;;5.40;99.90;;;;;;5051821;28;20040;-71
2022/04/29 04:02:57;;;;;;;6.55;1.13;;;5.30;99.90;;;;;;5035483;28;20401;-71
2022/04/29 04:05:23;;;;;;;2.75;1.48;;;5.30;99.90;;;;;;5051691;28;20041;-70
2022/04/29 04:07:49;;;;;;;1.63;1.33;;;6.00;99.90;;;;;;5035266;28;20060;-70
2022/04/29 04:10:15;;;;;;;1.90;1.15;;;5.40;99.90;;;;;;5052017;28;20045;-71
2022/04/29 04:12:46;;;;;;;2.13;1.13;;;5.40;99.90;;;;;;5034058;28;20087;-72
2022/04/29 04:15:13;;;;;;;;;;;5.40;99.90;;;;;;5052290;28;20480;-71
2022/04/29 04:17:39;;;;;;;2.40;1.58;;;5.90;99.90;;;;;;5051861;28;19924;-71
2022/04/29 04:20:07;;;;;;;1.98;1.30;;;5.70;99.90;;;;;;5051534;28;20105;-71
2022/04/29 04:22:36;;;;;;;4.75;1.55;;;5.40;99.90;;;;;;5035113;28;20514;-71
2022/04/29 04:25:07;;;;;;;5.72;1.60;;;5.50;99.90;;;;;;5051475;28;20052;-71
2022/04/29 04:27:33;;;;;;;2.03;1.02;;;5.50;99.90;;;;;;5051402;28;20063;-71
2022/04/29 04:30:00;;;;;;;1.55;1.08;;;5.50;99.90;;;;;;5051399;28;20045;-70
2022/04/29 04:32:27;;;;;;;3.03;0.80;;;5.50;99.90;;;;;;5051294;28;20128;-71
2022/04/29 04:34:54;;;;;;;5.20;2.20;;;5.70;99.90;;;;;;5051326;28;20033;-71
2022/04/29 04:37:21;;;;;;;1.70;1.48;;;5.50;99.90;;;;;;5051334;28;20036;-71
2022/04/29 04:39:48;;;;;;;2.00;1.50;;;5.60;99.90;;;;;;5034697;28;20092;-71
2022/04/29 04:42:14;;;;;;;1.98;1.15;;;6.00;99.90;;;;;;5034758;28;20045;-71
2022/04/29 04:44:40;;;;;;;2.58;1.90;;;5.60;99.90;;;;;;5051244;28;20139;-72
2022/04/29 04:47:06;;;;;;;2.08;1.60;;;5.70;99.90;;;;;;5051370;28;20084;-71
2022/04/29 04:49:33;;;;;;;2.13;1.75;;;5.70;99.90;;;;;;5051106;28;20047;-71
2022/04/29 04:51:58;;;;;;;4.32;1.83;;;6.50;99.90;;;;;;5018204;28;20040;-71
2022/04/29 04:54:24;;;;;;;1.50;1.13;;;5.90;99.90;;;;;;5018111;28;20108;-71
2022/04/29 04:56:50;;;;;;;1.70;1.30;;;5.90;99.90;;;;;;5051489;28;20400;-71
2022/04/29 04:59:15;;;;;;;1.38;1.15;;;6.00;99.90;;;;;;5051160;28;20048;-72
2022/04/29 05:01:41;;;;;;;3.45;1.38;;;6.00;99.90;;;;;;5034804;28;20041;-71
2022/04/29 05:04:07;;;;;;;7.38;1.73;;;6.10;99.90;;;;;;5034837;28;20086;-71
2022/04/29 05:06:33;;;;;;;1.65;1.13;;;6.10;99.90;;;;;;5051283;28;20087;-71
2022/04/29 05:08:58;;;;;;;2.67;1.48;;;6.20;99.90;;;;;;5034613;28;20080;-71
2022/04/29 05:11:24;;;;;;;3.63;2.20;;;6.20;99.90;;;;;;5051057;28;20460;-71
2022/04/29 05:13:50;;;;;;;2.67;1.98;;;6.90;99.90;;;;;;5017953;28;20053;-71
2022/04/29 05:16:15;;;;;;;2.13;1.58;;;6.30;99.90;;;;;;5017986;28;20075;-71
2022/04/29 05:18:41;;;;;;;1.67;1.25;;;6.40;99.90;;;;;;5050938;28;20480;-71
2022/04/29 05:21:07;;;;;;;2.47;1.23;;;6.80;99.90;;;;;;5034396;28;20404;-71
2022/04/29 05:23:36;;;;;;;1.45;1.20;;;6.60;99.90;;;;;;5034280;28;20485;-71
2022/04/29 05:26:02;;;;;;;3.28;1.52;;;6.70;99.90;;;;;;5038568;28;20041;-71
2022/04/29 05:28:28;;;;;;;3.70;1.80;;;6.80;99.90;;;;;;5054669;28;20041;-71
2022/04/29 05:30:55;;;;;;;5.47;1.52;;;7.00;99.90;;;;;;5038034;28;20047;-72
2022/04/29 05:33:21;;;;;;;3.85;1.60;;;7.20;99.90;;;;;;5054544;28;20095;-71
2022/04/29 05:35:47;;;;;;;1.55;1.00;;;7.30;99.90;;;;;;5038312;28;20459;-71
2022/04/29 05:38:12;;;;;;;1.98;1.38;;;7.40;99.90;;;;;;5054677;28;20045;-72
2022/04/29 05:43:23;;;;;;;2.75;1.35;;;7.70;99.90;;;;;;5040446;28;20116;-72
2022/04/29 05:45:48;;;;;;;3.75;1.58;;;7.80;99.90;;;;;;5037858;28;20522;-72
2022/04/29 05:48:14;;;;;;;2.28;1.50;;;7.90;99.90;;;;;;5021296;28;20128;-72
2022/04/29 05:50:40;;;;;;;5.63;1.52;;;7.90;99.90;;;;;;5054528;28;20045;-72
2022/04/29 05:53:06;;;;;;;2.15;1.38;;;8.00;99.90;;;;;;5054170;28;20067;-72
2022/04/29 05:55:31;;;;;;;1.63;1.25;;;8.10;99.90;;;;;;5037577;28;20037;-72
2022/04/29 05:57:57;;;;;;;5.57;0.90;;;8.10;99.90;;;;;;5021076;28;20404;-72
2022/04/29 06:00:23;;;;;;;2.08;1.15;;;8.10;99.90;;;;;;5037522;28;20033;-71
2022/04/29 06:02:48;;;;;;;1.70;0.88;;;8.10;99.90;;;;;;5058275;28;20045;-71
2022/04/29 06:05:14;;;;;;;3.38;1.40;;;8.20;99.90;;;;;;5054054;28;20086;-72
2022/04/29 06:07:43;;;;;;;6.55;1.20;;;8.20;99.90;;;;;;5037289;28;20045;-72
2022/04/29 06:10:09;;;;;;;3.10;1.33;;;9.10;99.90;;;;;;5053921;28;20044;-73
2022/04/29 06:12:42;;;;;;;1.92;1.08;;;8.50;99.90;;;;;;5036959;28;20056;-72
2022/04/29 06:15:13;;;;;;;2.10;0.88;;;8.30;99.90;;;;;;5037255;28;20127;-71
2022/04/29 06:17:39;;;;;;;2.00;1.05;;;8.40;99.90;;;;;;5037437;28;20099;-73
2022/04/29 06:20:06;;;;;;;1.73;1.08;;;8.30;99.90;;;;;;5020640;28;20044;-73
2022/04/29 06:22:31;;;;;;;1.95;1.40;;;8.40;99.90;;;;;;5053725;28;20041;-74
2022/04/29 06:24:57;;;;;;;2.20;1.67;;;8.40;99.90;;;;;;5053578;28;20408;-73
2022/04/29 06:27:23;;;;;;;3.30;1.48;;;9.00;99.90;;;;;;5020573;28;20056;-73
2022/04/29 06:29:49;;;;;;;1.75;1.15;;;8.50;99.90;;;;;;5053363;28;20110;-70
2022/04/29 06:32:14;;;;;;;1.92;1.35;;;8.40;99.90;;;;;;5053392;28;20447;-72
2022/04/29 06:34:42;;;;;;;2.33;1.35;;;8.50;99.90;;;;;;5036870;28;20175;-74
2022/04/29 06:37:08;;;;;;;2.13;1.40;;;8.50;99.90;;;;;;5036414;28;20107;-72
2022/04/29 06:39:33;;;;;;;1.67;0.90;;;8.60;99.90;;;;;;5036767;28;20037;-73
2022/04/29 06:41:59;;;;;;;2.40;1.13;;;8.70;99.90;;;;;;5053590;28;20067;-73
2022/04/29 06:44:25;;;;;;;2.40;0.82;;;8.70;99.90;;;;;;5053483;28;20091;-73
2022/04/29 06:46:50;;;;;;;1.42;0.90;;;8.70;99.90;;;;;;5053141;28;20045;-74
2022/04/29 06:49:17;;;;;;;1.42;0.82;;;8.70;99.90;;;;;;5053208;28;20052;-73
2022/04/29 06:51:43;;;;;;;2.30;1.15;;;8.80;99.90;;;;;;5053137;28;20048;-74
2022/04/29 06:54:09;;;;;;;1.35;0.73;;;8.80;99.90;;;;;;5053020;28;20455;-71
2022/04/29 06:56:34;;;;;;;1.45;0.90;;;8.80;99.90;;;;;;5053031;28;20488;-72
2022/04/29 06:59:02;;;;;;;0.73;0.60;;;8.70;99.90;;;;;;5036652;28;20039;-71
2022/04/29 07:01:28;;;;;;;0.70;0.63;;;9.40;99.90;;;;;;5036684;28;20037;-72
2022/04/29 07:03:53;;;;;;;1.63;0.70;;;8.80;99.90;;;;;;5036584;28;20067;-71
2022/04/29 07:06:23;;;;;;;1.25;0.90;;;8.80;99.90;;;;;;5036302;28;20051;-71
2022/04/29 07:08:48;;;;;;;2.75;1.00;;;8.80;99.90;;;;;;5036530;28;20140;-72
2022/04/29 07:11:14;;;;;;;1.13;0.50;;;8.90;99.90;;;;;;5036476;28;20132;-72
2022/04/29 07:13:42;;;;;;;0.70;0.70;;;8.90;99.90;;;;;;5052421;28;20052;-72
2022/04/29 07:16:09;;;;;;;1.33;1.00;;;9.00;99.90;;;;;;5052896;28;20037;-72
2022/04/29 07:18:36;;;;;;;0.90;0.68;;;9.00;99.90;;;;;;5052549;28;20049;-71
2022/04/29 07:21:03;;;;;;;0.95;0.70;;;9.00;99.90;;;;;;5052486;28;20083;-71
2022/04/29 07:23:29;;;;;;;1.15;0.90;;;9.10;99.90;;;;;;5052337;28;20479;-72
2022/04/29 07:25:54;;;;;;;5.00;1.10;;;9.20;99.90;;;;;;5052234;28;20072;-71
2022/04/29 07:28:21;;;;;;;3.72;1.20;;;9.10;99.90;;;;;;5052219;28;20111;-71
2022/04/29 07:30:47;;;;;;;2.83;0.98;;;9.20;99.90;;;;;;5035796;28;20415;-72
2022/04/29 07:33:14;;;;;;;3.22;0.90;;;9.40;99.90;;;;;;5052458;28;20045;-72
2022/04/29 07:43:52;;;;;;;1.30;0.73;;;9.60;99.90;;;;;;5052195;28;20057;-71
2022/04/29 07:46:21;;;;;;;1.05;0.80;;;9.60;99.90;;;;;;5052103;28;20397;-70
2022/04/29 07:48:47;;;;;;;1.15;1.00;;;10.10;99.90;;;;;;5034828;28;20056;-71
2022/04/29 07:51:13;;;;;;;3.03;1.60;;;9.80;99.90;;;;;;5052019;28;20048;-72
2022/04/29 07:53:38;;;;;;;0.65;0.65;;;10.00;99.90;;;;;;5035271;28;20420;-71
2022/04/29 07:56:05;;;;;;;1.35;0.90;;;10.00;99.90;;;;;;5051752;28;20068;-71
2022/04/29 07:58:31;;;;;;;0.85;0.82;;;9.90;99.90;;;;;;5052106;28;20037;-70
2022/04/29 08:00:57;;;;;;;3.55;1.33;;;10.10;99.90;;;;;;5051839;28;20037;-72
2022/04/29 08:03:23;;;;;;;1.08;0.70;;;10.30;99.90;;;;;;5035545;28;20047;-72
2022/04/29 08:05:50;;;;;;;0.98;0.70;;;10.80;99.90;;;;;;5018746;28;20089;-72
2022/04/29 08:08:16;;;;;;;0.68;0.68;;;10.30;99.90;;;;;;5018957;28;20373;-71
2022/04/29 08:10:42;;;;;;;2.20;1.20;;;10.60;99.90;;;;;;5034942;28;20179;-71
2022/04/29 08:13:07;;;;;;;0.70;0.70;;;10.40;99.90;;;;;;5051201;28;20060;-70
2022/04/29 08:15:33;;;;;;;1.13;0.80;;;10.50;99.90;;;;;;5051563;28;20067;-71
2022/04/29 08:17:59;;;;;;;1.58;0.80;;;10.60;99.90;;;;;;5035198;28;20044;-70
2022/04/29 08:20:25;;;;;;;0.73;0.65;;;10.60;99.90;;;;;;5051790;28;20119;-71
2022/04/29 08:22:51;;;;;;;4.70;1.35;;;10.60;99.90;;;;;;5051825;28;20041;-70
2022/04/29 08:25:20;;;;;;;1.48;1.00;;;11.10;99.90;;;;;;5034889;28;20044;-71
2022/04/29 08:27:46;;;;;;;1.80;1.50;;;11.20;99.90;;;;;;5051731;28;20124;-70
2022/04/29 08:30:13;;;;;;;0.80;0.65;;;11.40;99.90;;;;;;5051608;28;20040;-70
2022/04/29 08:32:41;;;;;;;2.42;0.88;;;11.20;99.90;;;;;;5051194;28;20055;-69
2022/04/29 08:35:09;;;;;;;0.82;0.75;;;10.90;99.90;;;;;;5051305;28;20098;-70
2022/04/29 08:37:36;;;;;;;1.00;0.80;;;11.00;99.90;;;;;;5051598;28;20045;-70
2022/04/29 08:40:02;;;;;;;1.08;0.95;;;11.20;99.90;;;;;;5018310;28;20107;-71
2022/04/29 08:42:28;;;;;;;0.88;0.73;;;11.10;99.90;;;;;;5051281;28;20512;-72
2022/04/29 08:44:54;;;;;;;1.27;0.73;;;11.60;99.90;;;;;;5034682;28;20094;-70
2022/04/29 08:47:20;;;;;;;5.72;0.75;;;11.30;99.90;;;;;;5034957;28;20045;-70
2022/04/29 08:49:47;;;;;;;1.38;0.90;;;11.40;99.90;;;;;;5051205;28;20037;-70
2022/04/29 08:52:14;;;;;;;1.58;1.00;;;11.40;99.90;;;;;;5051424;28;20044;-70
2022/04/29 09:00:13;;;;;;;1.00;0.77;;;11.60;99.90;;;;;;5053796;28;20045;-71
2022/04/29 09:02:40;;;;;;;1.00;0.77;;;11.50;99.90;;;;;;5055674;28;20396;-71
2022/04/29 09:05:10;;;;;;;2.45;1.05;;;11.50;99.90;;;;;;5055111;28;20083;-71
2022/04/29 09:08:02;;;;;;;0.70;0.70;;;11.70;99.90;;;;;;5055124;28;20041;-71
2022/04/29 09:10:36;;;;;;;1.02;0.82;;;11.60;99.90;;;;;;5055323;28;20041;-71
2022/04/29 09:13:17;;;;;;;0.60;0.57;;;11.70;99.90;;;;;;5054634;28;20098;-71
2022/04/29 09:15:47;;;;;;;0.98;0.70;;;11.80;99.90;;;;;;5055084;28;20041;-72
2022/04/29 09:18:13;;;;;;;4.40;1.05;;;12.00;99.90;;;;;;5055212;28;20084;-73
2022/04/29 09:20:39;;;;;;;6.60;1.05;;;12.20;99.90;;;;;;5038329;28;20048;-72
2022/04/29 09:23:06;;;;;;;1.85;1.05;;;12.10;99.90;;;;;;5038168;28;20048;-71
2022/04/29 09:25:36;;;;;;;1.45;0.90;;;12.20;99.90;;;;;;5055003;28;20048;-72
2022/04/29 09:28:04;;;;;;;1.33;0.85;;;12.20;99.90;;;;;;5038239;28;20179;-71
2022/04/29 09:30:31;;;;;;;2.35;0.95;;;12.20;99.90;;;;;;5054904;28;20049;-72
2022/04/29 09:32:57;;;;;;;1.38;0.90;;;;;;;;;;5038073;28;20045;-71
2022/04/29 09:35:42;;;;;;;1.00;0.73;;;12.40;99.90;;;;;;5054526;28;20037;-71
2022/04/29 09:40:54;;;;;;;1.70;0.88;;;12.30;99.90;;;;;;5054416;28;20072;-71
2022/04/29 09:43:34;;;;;;;1.38;0.77;;;12.30;99.90;;;;;;5054367;28;20102;-69
2022/04/29 09:46:20;;;;;;;0.60;0.50;;;12.20;99.90;;;;;;5054637;28;20068;-70
2022/04/29 09:49:03;;;;;;;4.15;1.20;;;12.40;99.90;;;;;;5054363;28;20051;-70
2022/04/29 09:51:51;;;;;;;1.92;0.95;;;12.40;99.90;;;;;;5054587;28;20056;-72
2022/04/29 09:54:30;;;;;;;2.35;1.17;;;12.40;99.90;;;;;;5054486;28;20045;-72
2022/04/29 09:57:23;;;;;;;1.40;0.75;;;12.40;99.90;;;;;;5037856;28;20040;-72
2022/04/29 09:59:54;;;;;;;0.90;0.70;;;12.30;99.90;;;;;;5054462;28;20049;-72
2022/04/29 10:02:21;;;;;;;0.98;0.82;;;12.30;99.90;;;;;;5037558;28;20049;-73
2022/04/29 10:04:49;;;;;;;2.42;1.02;;;12.30;99.90;;;;;;5037372;28;20124;-73
2022/04/29 10:07:17;;;;;;;1.35;0.80;;;12.40;99.90;;;;;;5037305;28;20047;-70
2022/04/29 10:09:50;;;;;;;0.63;0.50;;;12.40;99.90;;;;;;5054200;28;20086;-72
2022/04/29 10:12:19;;;;;;;0.70;0.60;;;12.30;99.90;;;;;;5052660;28;20044;-72
2022/04/29 10:14:46;;;;;;;1.15;0.80;;;12.30;99.90;;;;;;5037412;28;20107;-72
2022/04/29 10:22:54;;;;;;;1.00;0.90;;;12.30;99.90;;;;;;5053763;28;20049;-72
2022/04/29 10:25:24;;;;;;;2.03;1.02;;;12.50;99.90;;;;;;5053902;28;20122;-72
2022/04/29 10:27:50;;;;;;;3.10;0.88;;;12.30;99.90;;;;;;5053642;28;20049;-72
2022/04/29 10:30:29;;;;;;;0.95;0.65;;;12.40;99.90;;;;;;5020621;28;20404;-72
2022/04/29 10:33:01;;;;;;;1.50;1.10;;;12.40;99.90;;;;;;5053551;28;20075;-70
2022/04/29 10:35:39;;;;;;;2.05;0.95;;;12.40;99.90;;;;;;5053876;28;20504;-70
2022/04/29 10:38:15;;;;;;;2.78;0.85;;;12.30;99.90;;;;;;5036803;28;20076;-71
2022/04/29 10:40:42;;;;;;;1.63;1.00;;;12.30;99.90;;;;;;5037427;28;20654;-70
2022/04/29 10:43:09;;;;;;;2.55;0.88;;;12.30;99.90;;;;;;5053390;28;20080;-69
2022/04/29 10:45:55;;;;;;;0.90;0.60;;;12.20;99.90;;;;;;5036697;28;20045;-70
2022/04/29 10:48:35;;;;;;;0.88;0.82;;;12.20;99.90;;;;;;5053092;28;20048;-72
2022/04/29 10:51:13;;;;;;;1.77;1.10;;;12.10;99.90;;;;;;5036805;28;20053;-71
2022/04/29 10:53:41;;;;;;;2.08;0.80;;;12.10;99.90;;;;;;5052977;28;20079;-69
2022/04/29 10:56:30;;;;;;;1.33;0.60;;;12.10;99.90;;;;;;5036538;28;20045;-70
2022/04/29 10:59:18;;;;;;;2.05;1.00;;;12.10;99.90;;;;;;5053014;28;20063;-71
2022/04/29 11:02:13;;;;;;;2.50;1.20;;;12.10;99.90;;;;;;5053379;28;20040;-70
2022/04/29 11:04:43;;;;;;;2.33;1.15;;;12.00;99.90;;;;;;5050993;28;20040;-70
2022/04/29 11:07:32;;;;;;;2.80;1.20;;;12.00;99.90;;;;;;5052977;28;20119;-70
2022/04/29 11:09:58;;;;;;;1.30;0.95;;;11.90;99.90;;;;;;5052812;28;20049;-69
2022/04/29 11:12:32;;;;;;;4.18;1.42;;;11.90;99.90;;;;;;5052531;28;20090;-70
2022/04/29 11:15:23;;;;;;;2.92;1.60;;;11.90;99.90;;;;;;5053114;28;20041;-69
2022/04/29 11:17:49;;;;;;;5.18;1.20;;;12.00;99.90;;;;;;5036485;28;20110;-70
2022/04/29 11:20:25;;;;;;;1.92;1.08;;;12.00;99.90;;;;;;5052663;28;20377;-71
2022/04/29 11:25:57;;;;;;;1.17;0.95;;;12.00;99.90;;;;;;5052813;28;20488;-70
2022/04/29 11:28:24;;;;;;;2.50;1.50;;;12.00;99.90;;;;;;5052477;28;20044;-71
2022/04/29 11:30:59;;;;;;;1.90;1.35;;;11.90;99.90;;;;;;5035876;28;20045;-71
2022/04/29 11:33:24;;;;;;;2.60;1.45;;;12.00;99.90;;;;;;5035697;28;20132;-71
2022/04/29 11:35:52;;;;;;;2.13;1.15;;;12.00;99.90;;;;;;5052664;28;20127;-70
2022/04/29 11:38:18;;;;;;;2.10;1.00;;;12.00;99.90;;;;;;5035711;28;20041;-71
2022/04/29 11:40:44;;;;;;;2.33;1.45;;;12.00;99.90;;;;;;5035757;28;20072;-71
2022/04/29 11:43:11;;;;;;;2.15;1.17;;;12.10;99.90;;;;;;5035846;28;20373;-70
2022/04/29 11:45:38;;;;;;;2.35;1.35;;;12.10;99.90;;;;;;5035938;28;20492;-71
2022/04/29 11:48:08;;;;;;;1.40;1.05;;;12.10;99.90;;;;;;5052080;28;20526;-71
2022/04/29 11:50:35;;;;;;;1.02;0.93;;;12.10;99.90;;;;;;5052056;28;20128;-72
2022/04/29 11:53:12;;;;;;;1.98;1.15;;;12.00;99.90;;;;;;5051983;28;20045;-70
2022/04/29 11:55:38;;;;;;;1.30;1.02;;;12.00;99.90;;;;;;5035412;28;20032;-72
2022/04/29 11:58:05;;;;;;;2.55;1.65;;;12.00;99.90;;;;;;5051967;28;20044;-70
2022/04/29 12:00:33;;;;;;;1.45;1.15;;;12.10;99.90;;;;;;5051821;28;20044;-71
2022/04/29 12:03:01;;;;;;;2.50;1.40;;;12.20;99.90;;;;;;5051891;28;20123;-71
2022/04/29 12:05:28;;;;;;;0.80;0.73;;;12.20;99.90;;;;;;5035156;28;20084;-71
2022/04/29 12:07:58;;;;;;;1.88;1.42;;;12.40;99.90;;;;;;5035222;28;20041;-71
2022/04/29 12:10:26;;;;;;;1.92;1.30;;;12.50;99.90;;;;;;5035095;28;20132;-71
2022/04/29 12:13:03;;;;;;;2.97;1.80;;;12.50;99.90;;;;;;5051491;28;20067;-72
2022/04/29 12:15:36;;;;;;;4.25;1.45;;;13.20;99.90;;;;;;5035337;28;20546;-71
2022/04/29 12:18:43;;;;;;;1.92;1.30;;;12.40;99.90;;;;;;5051624;28;20044;-71
2022/04/29 12:21:09;;;;;;;3.00;1.80;;;12.50;99.90;;;;;;5051444;28;20060;-73
2022/04/29 12:23:35;;;;;;;1.25;0.93;;;12.50;99.90;;;;;;5051761;28;20056;-72
2022/04/29 12:26:02;;;;;;;1.10;0.93;;;12.40;99.90;;;;;;5051498;28;20063;-72
2022/04/29 12:28:32;;;;;;;2.10;1.48;;;12.30;99.90;;;;;;5051698;28;20055;-72
2022/04/29 12:36:54;;;;;;;1.92;1.33;;;12.30;99.90;;;;;;5051401;28;20102;-71
2022/04/29 12:39:25;;;;;;;4.07;1.52;;;12.20;99.90;;;;;;5051378;28;20048;-73
2022/04/29 12:42:15;;;;;;;2.88;1.67;;;12.20;99.90;;;;;;5034998;28;20045;-71
2022/04/29 12:45:04;;;;;;;2.50;1.70;;;12.30;99.90;;;;;;5051411;28;20224;-72
2022/04/29 12:47:44;;;;;;;5.38;1.38;;;12.30;99.90;;;;;;5051879;28;20481;-72
2022/04/29 12:50:24;;;;;;;1.57;1.23;;;12.20;99.90;;;;;;5034787;28;20044;-71
2022/04/29 12:52:51;;;;;;;1.10;0.85;;;12.30;99.90;;;;;;5034641;28;20365;-72
2022/04/29 12:55:16;;;;;;;2.53;1.13;;;12.20;99.90;;;;;;5051231;28;20124;-72
2022/04/29 12:57:42;;;;;;;1.38;0.90;;;12.20;99.90;;;;;;5034583;28;20120;-72
2022/04/29 13:00:08;;;;;;;1.77;1.20;;;12.30;99.90;;;;;;5034934;28;20049;-71
2022/04/29 13:02:34;;;;;;;1.58;1.10;;;12.50;99.90;;;;;;5051416;28;20056;-72
2022/04/29 13:05:00;;;;;;;2.33;1.20;;;12.50;99.90;;;;;;5051033;28;20045;-71
2022/04/29 13:07:26;;;;;;;1.75;1.10;;;12.40;99.90;;;;;;5034499;28;20067;-71
2022/04/29 13:09:51;;;;;;;1.60;1.13;;;12.50;99.90;;;;;;5051353;28;20044;-71
2022/04/29 13:12:18;;;;;;;1.17;1.00;;;12.60;99.90;;;;;;5051124;28;20045;-71
2022/04/29 13:14:44;;;;;;;0.95;0.85;;;12.60;99.90;;;;;;5034663;28;20480;-71
2022/04/29 13:17:09;;;;;;;1.20;1.10;;;12.70;99.90;;;;;;5034459;28;20130;-71
2022/04/29 13:19:37;;;;;;;1.55;1.10;;;12.70;99.90;;;;;;5050934;28;20040;-71
2022/04/29 13:22:03;;;;;;;1.67;1.10;;;12.60;99.90;;;;;;5050867;28;20041;-70
2022/04/29 13:24:28;;;;;;;1.60;1.10;;;12.60;99.90;;;;;;5034339;28;20099;-71
2022/04/29 13:26:54;;;;;;;2.08;1.00;;;12.70;99.90;;;;;;5034495;28;20053;-71
2022/04/29 13:29:20;;;;;;;1.00;0.88;;;12.90;99.90;;;;;;5051114;28;20080;-70
2022/04/29 13:31:46;;;;;;;1.75;1.00;;;13.00;99.90;;;;;;5034382;28;20067;-69